Time;durP1;ratioP1;P1;durP2;ratioP2;P2;SDS_P1;SDS_P2;PMS_P1;PMS_P2;Temp;Humidity;BMP_temperature;BMP_pressure;BME280_temperature;BME280_humidity;BME280_pressure;Samples;Min_cycle;Max_cycle;Signal;HPM_P1;HPM_P2
2022/03/24 00:01:40;;;;;;;30.90;10.32;;;;;;;2.02;41.99;99606.13;5078252;27;20247;-66
2022/03/24 00:04:05;;;;;;;40.40;9.75;;;;;;;2.02;42.39;99607.88;5096815;27;20047;-69
2022/03/24 00:06:30;;;;;;;23.90;9.82;;;;;;;1.98;43.19;99596.63;5060912;27;20142;-67
2022/03/24 00:08:55;;;;;;;24.50;8.55;;;;;;;1.95;42.01;99594.09;5078265;27;20056;-66
2022/03/24 00:11:20;;;;;;;13.98;6.78;;;;;;;1.94;40.81;99597.63;5077656;27;20035;-69
2022/03/24 00:13:45;;;;;;;20.00;7.13;;;;;;;1.91;41.03;99595.13;5096351;27;20042;-67
2022/03/24 00:16:10;;;;;;;25.90;9.95;;;;;;;1.89;43.14;99590.84;5095543;27;20043;-70
2022/03/24 00:18:35;;;;;;;31.27;9.70;;;;;;;1.90;42.87;99587.31;5077434;27;20121;-70
2022/03/24 00:21:00;;;;;;;21.10;8.52;;;;;;;1.88;42.45;99589.13;5095942;27;20043;-69
2022/03/24 00:23:25;;;;;;;22.83;10.05;;;;;;;1.86;43.73;99586.56;5077548;27;20074;-69
2022/03/24 00:25:50;;;;;;;38.08;13.18;;;;;;;1.83;43.54;99592.78;5060155;27;20127;-67
2022/03/24 00:28:15;;;;;;;35.33;9.60;;;;;;;1.80;43.49;99574.50;5077340;27;20382;-66
2022/03/24 00:30:42;;;;;;;29.75;11.23;;;;;;;1.79;43.75;99575.44;5060752;27;20043;-68
2022/03/24 00:33:07;;;;;;;29.52;10.48;;;;;;;1.78;43.94;99578.09;5077367;27;20154;-65
2022/03/24 00:35:32;;;;;;;32.30;10.70;;;;;;;1.77;44.78;99571.13;5095756;27;20067;-69
2022/03/24 00:37:57;;;;;;;25.38;9.70;;;;;;;1.77;44.69;99572.00;5060596;27;20558;-66
2022/03/24 00:40:22;;;;;;;29.33;9.35;;;;;;;1.78;45.16;99564.97;5077516;27;20505;-68
2022/03/24 00:42:47;;;;;;;20.75;8.05;;;;;;;1.78;44.30;99563.19;5043792;27;20042;-69
2022/03/24 00:45:15;;;;;;;34.55;9.85;;;;;;;1.77;44.33;99560.63;5095868;27;20043;-67
2022/03/24 00:47:41;;;;;;;25.30;9.05;;;;;;;1.76;43.86;99558.91;5078804;27;20074;-67
2022/03/24 00:50:07;;;;;;;27.13;10.27;;;;;;;1.71;43.72;99556.44;5064587;27;20049;-66
2022/03/24 00:52:32;;;;;;;18.02;7.38;;;;;;;1.68;42.73;99556.56;5082105;27;20229;-66
2022/03/24 00:54:57;;;;;;;23.55;8.93;;;;;;;1.64;43.14;99554.97;5084270;27;20103;-68
2022/03/24 00:57:22;;;;;;;24.50;9.50;;;;;;;1.63;43.97;99547.97;5080689;28;20050;-70
2022/03/24 00:59:47;;;;;;;30.17;9.40;;;;;;;1.63;44.01;99550.59;5095988;27;20042;-71
2022/03/24 01:02:12;;;;;;;20.67;9.88;;;;;;;1.64;44.18;99549.69;5095988;27;20035;-68
2022/03/24 01:04:37;;;;;;;27.98;9.15;;;;;;;1.64;44.87;99549.69;5077220;28;20027;-66
2022/03/24 01:07:03;;;;;;;36.38;10.32;;;;;;;1.63;44.65;99537.47;5095317;28;20078;-65
2022/03/24 01:09:28;;;;;;;25.20;9.15;;;;;;;1.60;44.64;99537.56;5095535;28;20035;-67
2022/03/24 01:11:52;;;;;;;28.50;9.18;;;;;;;1.61;45.21;99541.91;5077274;28;20069;-68
2022/03/24 01:14:17;;;;;;;28.25;8.43;;;;;;;1.60;45.29;99536.72;5097509;27;20041;-69
2022/03/24 01:16:43;;;;;;;26.77;8.63;;;;;;;1.59;44.98;99530.59;5111981;27;20548;-71
2022/03/24 01:19:08;;;;;;;28.80;9.70;;;;;;;1.60;45.15;99536.72;5086419;27;20042;-69
2022/03/24 01:21:33;;;;;;;23.58;9.63;;;;;;;1.61;46.17;99536.66;5117110;27;20046;-68
2022/03/24 01:23:59;;;;;;;21.60;9.13;;;;;;;1.62;46.71;99532.28;5116909;27;20053;-67
2022/03/24 01:26:24;;;;;;;27.63;10.57;;;;;;;1.66;46.49;99536.50;5080332;27;20110;-68
2022/03/24 01:28:50;;;;;;;20.40;8.20;;;;;;;1.66;46.36;99532.13;5102437;27;20053;-69
2022/03/24 01:31:16;;;;;;;26.92;8.60;;;;;;;1.64;46.85;99536.56;5101946;27;20042;-66
2022/03/24 01:33:42;;;;;;;26.30;10.38;;;;;;;1.64;47.76;99528.69;5102304;27;20240;-71
2022/03/24 01:36:09;;;;;;;23.90;9.25;;;;;;;1.65;47.96;99532.16;5102713;27;20049;-69
2022/03/24 01:38:37;;;;;;;34.90;9.75;;;;;;;1.63;47.77;99536.63;5120345;27;20066;-68
2022/03/24 01:41:03;;;;;;;21.10;9.30;;;;;;;1.60;48.16;99526.22;5119757;27;20142;-68
2022/03/24 01:43:28;;;;;;;27.85;12.30;;;;;;;1.57;47.94;99521.09;5119830;27;20042;-68
2022/03/24 01:45:54;;;;;;;27.83;8.50;;;;;;;1.57;47.87;99531.59;5102231;27;20095;-69
2022/03/24 01:48:20;;;;;;;26.38;8.88;;;;;;;1.55;47.51;99512.41;5084497;27;20038;-69
2022/03/24 01:50:45;;;;;;;22.60;8.90;;;;;;;1.53;47.49;99514.22;5066834;27;20038;-69
2022/03/24 01:53:12;;;;;;;23.00;8.75;;;;;;;1.51;47.51;99514.28;5100820;27;20042;-70
2022/03/24 01:55:38;;;;;;;25.98;9.00;;;;;;;1.50;47.66;99515.19;5101003;27;20043;-68
2022/03/24 01:58:04;;;;;;;17.00;8.55;;;;;;;1.51;47.42;99516.03;5084353;27;20461;-69
2022/03/24 02:00:31;;;;;;;15.82;7.70;;;;;;;1.49;47.02;99515.25;5120444;27;20118;-68
2022/03/24 02:03:02;;;;;;;18.42;8.18;;;;;;;1.49;47.55;99512.63;5104768;27;20053;-64
2022/03/24 02:05:26;;;;;;;17.83;9.85;;;;;;;1.47;48.10;99503.97;5102394;27;20051;-72
2022/03/24 02:07:52;;;;;;;36.10;9.13;;;;;;;1.44;47.47;99503.16;5084693;27;20049;-69
2022/03/24 02:10:17;;;;;;;29.17;8.65;;;;;;;1.41;47.93;99505.88;5086679;27;20034;-66
2022/03/24 02:12:42;;;;;;;15.82;6.93;;;;;;;1.39;46.98;99505.06;5089263;27;20046;-68
2022/03/24 02:15:09;;;;;;;15.13;8.10;;;;;;;1.34;46.77;99496.53;5088871;27;20040;-72
2022/03/24 02:17:34;;;;;;;23.75;7.57;;;;;;;1.32;46.52;99505.38;5084991;27;20130;-67
2022/03/24 02:19:59;;;;;;;15.13;6.65;;;;;;;1.29;46.30;99508.09;5108824;27;20407;-68
2022/03/24 02:22:26;;;;;;;15.50;8.38;;;;;;;1.27;46.07;99494.16;5091480;27;20046;-66
2022/03/24 02:24:51;;;;;;;17.20;8.30;;;;;;;1.24;46.00;99496.91;5123804;27;20047;-70
2022/03/24 02:27:16;;;;;;;12.85;6.32;;;;;;;1.20;46.16;99487.41;5124340;27;20046;-67
2022/03/24 02:29:41;;;;;;;19.63;7.63;;;;;;;1.18;46.91;99487.47;5105454;27;20034;-68
2022/03/24 02:32:08;;;;;;;16.48;6.82;;;;;;;1.17;46.54;99485.75;5122802;27;20039;-67
2022/03/24 02:34:40;;;;;;;22.23;6.70;;;;;;;1.14;46.81;99483.22;5123556;27;20038;-66
2022/03/24 02:37:11;;;;;;;16.65;7.43;;;;;;;1.17;46.70;99482.28;5125439;27;20038;-73
2022/03/24 02:39:57;;;;;;;19.55;6.75;;;;;;;1.15;46.74;99482.31;5089378;27;20039;-67
2022/03/24 02:42:25;;;;;;;14.50;7.63;;;;;;;1.18;47.06;99482.22;5122072;27;20055;-67
2022/03/24 02:44:56;;;;;;;22.90;7.32;;;;;;;1.16;47.22;99480.56;5101933;27;20038;-68
2022/03/24 02:47:22;;;;;;;16.00;6.90;;;;;;;1.12;46.99;99486.84;5101350;27;20066;-69
2022/03/24 02:49:49;;;;;;;16.25;6.68;;;;;;;1.07;46.90;99482.59;5120743;27;20038;-70
2022/03/24 02:52:15;;;;;;;23.52;7.05;;;;;;;1.02;46.43;99473.16;5123974;27;20130;-69
2022/03/24 02:54:40;;;;;;;14.48;7.13;;;;;;;0.99;46.78;99470.66;5066113;27;20128;-77
2022/03/24 02:57:05;;;;;;;14.88;7.00;;;;;;;0.95;46.74;99474.31;5089260;27;20042;-76
2022/03/24 02:59:30;;;;;;;16.05;6.35;;;;;;;0.93;46.77;99469.09;5109460;27;20039;-76
2022/03/24 03:02:06;;;;;;;14.15;6.25;;;;;;;0.95;46.93;99469.91;5079698;27;20067;-76
2022/03/24 03:04:32;;;;;;;13.40;6.43;;;;;;;0.91;46.52;99475.31;5079375;27;20034;-78
2022/03/24 03:06:57;;;;;;;14.50;5.85;;;;;;;0.88;46.38;99471.06;5117503;27;20055;-78
2022/03/24 03:09:22;;;;;;;10.23;6.03;;;;;;;0.87;46.25;99465.84;5097405;27;20049;-71
2022/03/24 03:11:48;;;;;;;15.75;5.07;;;;;;;0.87;45.93;99469.34;5116234;27;20103;-67
2022/03/24 03:14:15;;;;;;;12.35;6.03;;;;;;;0.85;46.19;99465.03;5110252;27;20501;-70
2022/03/24 03:16:40;;;;;;;14.02;7.10;;;;;;;0.82;46.50;99471.25;5098474;27;20039;-70
2022/03/24 03:19:08;;;;;;;16.50;7.10;;;;;;;0.81;46.62;99464.28;5064757;27;20039;-69
2022/03/24 03:21:33;;;;;;;18.42;6.65;;;;;;;0.83;46.26;99466.84;5065738;27;20489;-70
2022/03/24 03:23:58;;;;;;;12.35;6.68;;;;;;;0.83;46.83;99462.47;5100748;27;20118;-71
2022/03/24 03:26:23;;;;;;;12.80;5.88;;;;;;;0.84;46.88;99458.94;5080721;27;20051;-75
2022/03/24 03:28:47;;;;;;;15.02;6.43;;;;;;;0.83;47.29;99459.84;5081300;27;20074;-74
2022/03/24 03:31:14;;;;;;;12.23;6.00;;;;;;;0.85;46.45;99458.03;5102691;27;20154;-75
2022/03/24 03:33:38;;;;;;;15.25;5.97;;;;;;;0.85;46.52;99455.41;5065511;27;20092;-72
2022/03/24 03:36:04;;;;;;;10.10;5.82;;;;;;;0.88;46.45;99455.31;5067575;27;20035;-75
2022/03/24 03:38:28;;;;;;;9.60;5.25;;;;;;;0.90;46.66;99450.88;5080325;27;20130;-74
2022/03/24 03:40:56;;;;;;;16.38;6.07;;;;;;;0.96;46.94;99448.00;5097971;27;20143;-76
2022/03/24 03:43:22;;;;;;;10.38;6.80;;;;;;;1.04;46.73;99453.84;5062070;27;20455;-75
2022/03/24 03:45:47;;;;;;;20.23;6.43;;;;;;;1.20;46.20;99453.28;5079389;27;20054;-75
2022/03/24 03:48:13;;;;;;;11.85;6.60;;;;;;;1.37;46.07;99445.63;5097957;27;20035;-76
2022/03/24 03:50:41;;;;;;;8.00;5.40;;;;;;;1.59;45.41;99451.78;5078430;27;20380;-75
2022/03/24 03:53:08;;;;;;;13.80;6.43;;;;;;;1.80;44.93;99437.00;5097899;27;20050;-75
2022/03/24 03:55:33;;;;;;;19.80;5.97;;;;;;;2.04;44.85;99443.03;5081239;27;20058;-76
2022/03/24 03:57:57;;;;;;;9.52;6.30;;;;;;;2.22;44.06;99434.41;5081678;27;20076;-76
2022/03/24 04:03:06;;;;;;;16.15;7.15;;;;;;;2.71;43.44;99432.34;5097675;27;20039;-76
2022/03/24 04:05:34;;;;;;;13.85;6.80;;;;;;;2.94;42.95;99426.91;5096962;27;20066;-77
2022/03/24 04:07:59;;;;;;;16.95;7.03;;;;;;;3.19;42.71;99431.97;5098074;27;20046;-75
2022/03/24 04:10:26;;;;;;;17.40;6.47;;;;;;;3.42;42.45;99426.50;5079268;27;20047;-76
2022/03/24 04:12:50;;;;;;;9.05;6.30;;;;;;;3.63;42.14;99427.28;5062225;27;20035;-76
2022/03/24 04:15:15;;;;;;;14.63;6.63;;;;;;;3.78;41.93;99426.59;5062540;27;20031;-76
2022/03/24 04:17:41;;;;;;;13.90;6.78;;;;;;;3.89;41.85;99419.00;5100080;27;20039;-76
2022/03/24 04:20:07;;;;;;;14.63;5.93;;;;;;;4.01;42.43;99422.84;5080234;27;20043;-78
2022/03/24 04:22:32;;;;;;;12.23;6.82;;;;;;;4.17;42.39;99423.81;5078882;27;20534;-77
2022/03/24 04:24:57;;;;;;;18.83;7.47;;;;;;;4.39;42.21;99426.25;5096928;27;20408;-77
2022/03/24 04:27:22;;;;;;;16.05;7.03;;;;;;;4.68;42.09;99423.00;5061615;27;20370;-77
2022/03/24 04:29:47;;;;;;;16.27;6.72;;;;;;;4.94;42.10;99421.66;5079283;27;20061;-76
2022/03/24 04:32:12;;;;;;;20.42;8.48;;;;;;;5.18;42.07;99423.94;5063071;27;20038;-76
2022/03/24 04:34:36;;;;;;;12.77;6.75;;;;;;;5.44;40.64;99413.66;5079572;27;20077;-76
2022/03/24 04:37:02;;;;;;;13.82;6.63;;;;;;;5.72;39.88;99409.53;5078554;27;20447;-76
2022/03/24 04:39:27;;;;;;;14.27;6.82;;;;;;;6.04;39.30;99418.34;5097286;27;20466;-76
2022/03/24 04:41:52;;;;;;;16.40;8.38;;;;;;;6.35;38.71;99409.50;5078275;27;20517;-75
2022/03/24 04:44:17;;;;;;;18.70;11.05;;;;;;;6.60;37.68;99411.56;5077910;27;20047;-76
2022/03/24 04:46:44;;;;;;;15.68;7.72;;;;;;;6.74;37.71;99411.59;5097031;27;20050;-76
2022/03/24 04:49:12;;;;;;;15.23;8.73;;;;;;;6.85;37.31;99419.78;5097108;27;20409;-77
2022/03/24 04:51:40;;;;;;;16.75;8.65;;;;;;;6.91;37.10;99414.09;5078630;27;20051;-76
2022/03/24 04:54:04;;;;;;;25.58;9.13;;;;;;;6.96;37.13;99417.31;5096838;27;20038;-77
2022/03/24 04:56:29;;;;;;;14.63;8.13;;;;;;;7.00;36.80;99410.06;5097554;27;20046;-76
2022/03/24 04:58:54;;;;;;;22.42;10.32;;;;;;;7.11;36.63;99410.25;5079842;27;20626;-76
2022/03/24 05:01:19;;;;;;;26.67;11.55;;;;;;;7.31;36.60;99412.53;5066031;28;20043;-77
2022/03/24 05:03:46;;;;;;;30.35;10.45;;;;;;;7.55;36.11;99400.41;5085798;28;20042;-76
2022/03/24 05:06:11;;;;;;;25.38;10.23;;;;;;;7.75;35.61;99403.56;5069112;28;20063;-75
2022/03/24 05:08:36;;;;;;;20.33;9.02;;;;;;;7.93;35.84;99405.03;5083942;28;20035;-75
2022/03/24 05:11:01;;;;;;;24.80;11.70;;;;;;;8.08;35.00;99397.91;5081853;28;20054;-77
2022/03/24 05:13:25;;;;;;;25.48;11.60;;;;;;;8.22;35.03;99408.47;5079156;28;20062;-77
2022/03/24 05:15:51;;;;;;;37.70;12.07;;;;;;;8.40;35.08;99404.63;5079746;28;20039;-78
2022/03/24 05:18:16;;;;;;;22.27;10.82;;;;;;;8.64;34.38;99407.47;5084251;28;20146;-76
2022/03/24 05:20:40;;;;;;;22.70;10.95;;;;;;;8.92;34.55;99406.41;5066921;28;20046;-77
2022/03/24 05:23:05;;;;;;;29.67;12.32;;;;;;;9.24;34.03;99391.78;5083606;28;20035;-77
2022/03/24 05:25:30;;;;;;;32.00;13.50;;;;;;;9.60;33.53;99403.41;5077214;28;20516;-77
2022/03/24 05:27:55;;;;;;;26.42;12.88;;;;;;;10.00;32.17;99402.25;5077368;28;20046;-77
2022/03/24 05:30:19;;;;;;;28.48;11.70;;;;;;;10.30;31.92;99398.31;5077355;27;20047;-76
2022/03/24 05:32:45;;;;;;;31.52;14.30;;;;;;;10.61;31.78;99402.22;5077289;28;20043;-76
2022/03/24 05:35:10;;;;;;;25.75;14.40;;;;;;;11.10;31.06;99396.66;5043925;28;20046;-77
2022/03/24 05:37:35;;;;;;;25.60;12.32;;;;;;;11.58;30.16;99400.81;5060442;28;20043;-76
2022/03/24 05:40:00;;;;;;;24.42;13.40;;;;;;;12.05;29.24;99395.31;5077723;28;20043;-77
2022/03/24 05:42:26;;;;;;;30.10;15.48;;;;;;;12.48;28.62;99395.31;5060194;28;20182;-76
2022/03/24 05:44:51;;;;;;;40.53;15.40;;;;;;;12.93;28.02;99402.16;5060427;28;20039;-76
2022/03/24 05:47:17;;;;;;;31.88;14.90;;;;;;;13.49;27.12;99403.63;5095459;27;20043;-76
2022/03/24 05:49:44;;;;;;;37.90;16.85;;;;;;;14.06;26.55;99408.34;5079123;28;20042;-72
2022/03/24 05:52:28;;;;;;;34.05;15.95;;;;;;;14.68;25.68;99397.28;5095179;27;20035;-72
2022/03/24 05:54:53;;;;;;;27.48;15.00;;;;;;;15.32;25.06;99393.97;5095177;28;20043;-72
2022/03/24 05:57:18;;;;;;;38.03;15.68;;;;;;;15.95;24.45;99392.31;5059704;27;20027;-72
2022/03/24 05:59:43;;;;;;;32.28;16.65;;;;;;;16.53;23.38;99399.16;5095369;27;20043;-71
2022/03/24 06:02:08;;;;;;;31.70;15.95;;;;;;;17.13;22.79;99399.38;5059789;28;20459;-72
2022/03/24 06:04:34;;;;;;;37.78;16.00;;;;;;;17.71;22.31;99396.91;5095729;28;20046;-71
2022/03/24 06:07:01;;;;;;;41.00;16.67;;;;;;;18.35;21.67;99400.84;5059848;28;20546;-70
2022/03/24 06:09:26;;;;;;;35.95;17.88;;;;;;;18.81;21.06;99410.22;5078435;28;20118;-73
2022/03/24 06:11:52;;;;;;;30.05;15.63;;;;;;;19.28;20.28;99405.00;5059673;27;20070;-73
2022/03/24 06:14:17;;;;;;;30.73;14.27;;;;;;;19.71;19.82;99403.75;5045539;27;20133;-73
2022/03/24 06:16:41;;;;;;;30.50;16.08;;;;;;;20.10;19.80;99414.56;5064867;27;20121;-75
2022/03/24 06:19:07;;;;;;;30.30;14.82;;;;;;;20.50;19.15;99410.84;5082265;27;20497;-72
2022/03/24 06:21:32;;;;;;;30.23;14.98;;;;;;;20.86;18.93;99415.69;5065092;27;20035;-72
2022/03/24 06:23:57;;;;;;;33.70;16.95;;;;;;;21.21;18.35;99414.25;5103617;27;20054;-71
2022/03/24 06:26:23;;;;;;;35.63;14.25;;;;;;;21.44;18.09;99415.06;5046379;27;20378;-72
2022/03/24 06:28:48;;;;;;;34.67;15.32;;;;;;;21.76;17.75;99413.00;5063859;27;20050;-72
2022/03/24 06:31:13;;;;;;;34.70;17.23;;;;;;;22.07;17.60;99409.09;5099084;27;20058;-72
2022/03/24 06:33:41;;;;;;;26.08;14.10;;;;;;;22.45;16.86;99411.66;5063526;27;20046;-72
2022/03/24 06:36:06;;;;;;;34.45;15.32;;;;;;;22.73;16.61;99412.59;5098890;27;20067;-72
2022/03/24 06:38:31;;;;;;;36.28;14.80;;;;;;;22.98;16.24;99412.25;5080793;27;20558;-72
2022/03/24 06:40:56;;;;;;;28.85;14.43;;;;;;;23.26;16.17;99415.81;5080208;27;20366;-72
2022/03/24 06:43:20;;;;;;;31.23;13.70;;;;;;;23.27;16.12;99411.22;5080141;27;20209;-72
2022/03/24 06:45:46;;;;;;;35.80;14.65;;;;;;;23.01;16.27;99411.84;5079982;27;20221;-71
2022/03/24 06:48:11;;;;;;;22.45;14.35;;;;;;;22.86;16.52;99414.63;5079804;27;20051;-70
2022/03/24 06:50:36;;;;;;;34.88;13.98;;;;;;;23.12;16.01;99412.19;5098519;27;20039;-69
2022/03/24 06:53:01;;;;;;;31.95;13.77;;;;;;;23.63;15.62;99424.72;5079887;27;20043;-69
2022/03/24 06:55:26;;;;;;;26.20;12.75;;;;;;;24.07;14.72;99422.47;5079809;27;20039;-71
2022/03/24 06:57:50;;;;;;;27.45;13.23;;;;;;;24.45;14.36;99424.78;5062681;27;20039;-70
2022/03/24 07:00:15;;;;;;;21.52;12.63;;;;;;;24.23;14.19;99427.63;5098321;27;20119;-71
2022/03/24 07:02:42;;;;;;;27.75;11.80;;;;;;;24.33;14.11;99427.25;5079904;27;20507;-70
2022/03/24 07:05:08;;;;;;;21.52;12.95;;;;;;;24.92;13.83;99427.47;5097995;27;20606;-70
2022/03/24 07:07:32;;;;;;;23.80;12.60;;;;;;;25.73;13.73;99430.03;5098447;27;20061;-68
2022/03/24 07:09:57;;;;;;;23.55;12.57;;;;;;;26.35;12.88;99429.47;5099187;27;20031;-68
2022/03/24 07:12:22;;;;;;;24.73;12.27;;;;;;;26.74;12.60;99424.88;5063191;27;20156;-70
2022/03/24 07:14:47;;;;;;;26.85;13.23;;;;;;;26.98;12.38;99426.81;5098177;27;20573;-68
2022/03/24 07:17:12;;;;;;;24.13;12.30;;;;;;;27.53;12.09;99428.94;5063540;27;20448;-69
2022/03/24 07:19:37;;;;;;;24.20;13.15;;;;;;;27.94;11.79;99433.84;5100012;27;20072;-69
2022/03/24 07:22:02;;;;;;;20.58;12.18;;;;;;;28.45;11.60;99426.06;5097743;27;20461;-68
2022/03/24 07:24:27;;;;;;;24.90;13.07;;;;;;;29.09;11.51;99427.34;5083794;27;20039;-69
2022/03/24 07:26:51;;;;;;;20.67;11.82;;;;;;;29.64;11.08;99435.34;5102856;27;20035;-68
2022/03/24 07:29:16;;;;;;;22.90;13.30;;;;;;;30.25;10.57;99436.72;5100322;27;20051;-69
2022/03/24 07:31:41;;;;;;;21.80;12.18;;;;;;;30.89;10.14;99445.78;5089998;27;20075;-69
2022/03/24 07:34:07;;;;;;;21.45;13.55;;;;;;;31.23;9.99;99438.47;5095264;27;20031;-69
2022/03/24 07:36:31;;;;;;;28.33;14.07;;;;;;;31.51;9.52;99430.09;5093342;27;20067;-68
2022/03/24 07:38:58;;;;;;;25.00;12.93;;;;;;;31.54;9.91;99439.78;5110155;27;20043;-69
2022/03/24 07:41:23;;;;;;;26.83;12.98;;;;;;;31.77;9.62;99436.91;5090692;27;20039;-72
2022/03/24 07:43:49;;;;;;;21.95;12.70;;;;;;;31.90;9.43;99446.75;5098386;27;20039;-68
2022/03/24 07:46:14;;;;;;;23.98;12.70;;;;;;;31.99;9.23;99437.78;5096847;27;20545;-68
2022/03/24 07:48:38;;;;;;;22.65;12.32;;;;;;;32.36;8.66;99431.69;5079141;27;20753;-68
2022/03/24 07:51:03;;;;;;;24.00;12.45;;;;;;;32.62;8.51;99441.13;5061889;27;20042;-69
2022/03/24 07:53:28;;;;;;;21.25;11.80;;;;;;;33.09;8.75;99446.91;5097130;27;20497;-67
2022/03/24 07:55:56;;;;;;;21.02;11.57;;;;;;;33.48;8.05;99442.88;5078666;27;20468;-70
2022/03/24 07:58:21;;;;;;;25.73;13.27;;;;;;;33.94;8.25;99437.72;5061472;27;20075;-72
2022/03/24 08:00:47;;;;;;;27.27;13.27;;;;;;;33.89;8.22;99437.66;5062079;27;20474;-70
2022/03/24 08:03:14;;;;;;;17.08;12.75;;;;;;;33.89;7.90;99432.13;5079002;27;20046;-71
2022/03/24 08:05:40;;;;;;;24.73;13.52;;;;;;;33.73;7.86;99438.66;5078238;27;20051;-69
2022/03/24 08:08:05;;;;;;;20.52;13.60;;;;;;;33.64;7.79;99438.28;5061329;27;20038;-70
2022/03/24 08:10:30;;;;;;;20.13;14.00;;;;;;;33.96;7.73;99432.75;5078090;27;20047;-70
2022/03/24 08:12:56;;;;;;;17.15;12.27;;;;;;;34.48;7.64;99448.53;5078323;27;20045;-69
2022/03/24 08:15:21;;;;;;;21.98;12.32;;;;;;;34.98;7.64;99444.31;5096547;27;20047;-71
2022/03/24 08:17:46;;;;;;;26.77;13.05;;;;;;;35.25;7.23;99440.22;5061175;27;20087;-72
2022/03/24 08:20:11;;;;;;;21.27;13.93;;;;;;;35.11;7.16;99444.59;5061089;27;20039;-70
2022/03/24 08:22:36;;;;;;;17.10;12.45;;;;;;;35.12;7.31;99439.88;5077647;27;20104;-70
2022/03/24 08:25:00;;;;;;;29.35;14.50;;;;;;;34.99;7.22;99444.00;5096224;27;20043;-71
2022/03/24 08:27:25;;;;;;;24.92;13.80;;;;;;;35.13;7.51;99438.78;5096326;27;20078;-70
2022/03/24 08:29:51;;;;;;;34.08;13.38;;;;;;;35.15;7.14;99444.88;5077887;27;20576;-70
2022/03/24 08:32:16;;;;;;;21.67;13.45;;;;;;;35.40;7.18;99422.78;5078176;27;20063;-71
2022/03/24 08:34:41;;;;;;;17.85;11.70;;;;;;;35.80;7.22;99444.13;5077918;27;20043;-70
2022/03/24 08:37:06;;;;;;;17.40;11.60;;;;;;;36.17;6.15;99438.22;5079634;27;20092;-71
2022/03/24 08:39:30;;;;;;;15.82;11.73;;;;;;;36.43;5.98;99429.84;5063300;28;20378;-71
2022/03/24 08:41:55;;;;;;;15.75;11.98;;;;;;;36.96;5.90;99423.47;5078179;27;20030;-72
2022/03/24 08:44:20;;;;;;;18.08;10.75;;;;;;;37.69;5.67;99436.59;5096149;27;20047;-73
2022/03/24 08:46:44;;;;;;;18.05;10.48;;;;;;;38.34;5.39;99432.28;5083318;27;20103;-70
2022/03/24 08:49:09;;;;;;;19.58;10.80;;;;;;;39.04;5.25;99434.47;5113320;27;20104;-70
2022/03/24 08:51:34;;;;;;;16.08;12.32;;;;;;;39.00;5.43;99438.97;5089600;27;20043;-70
2022/03/24 08:53:59;;;;;;;16.20;12.00;;;;;;;38.70;5.25;99434.66;5102329;27;20050;-69
2022/03/24 08:56:23;;;;;;;17.52;12.32;;;;;;;38.38;5.42;99433.31;5060734;27;20126;-70
2022/03/24 08:58:48;;;;;;;17.77;11.35;;;;;;;38.23;5.44;99435.50;5077912;28;20153;-70
2022/03/24 09:01:13;;;;;;;26.00;11.25;;;;;;;38.12;5.88;99434.78;5095935;27;20049;-69
2022/03/24 09:03:38;;;;;;;16.92;11.82;;;;;;;38.14;5.57;99435.31;5082632;27;20039;-68
2022/03/24 09:06:03;;;;;;;22.33;11.60;;;;;;;36.92;5.45;99429.88;5065724;28;20062;-68
2022/03/24 09:08:28;;;;;;;20.15;11.95;;;;;;;36.28;5.96;99433.50;5080840;28;20054;-69
2022/03/24 09:10:53;;;;;;;15.90;11.38;;;;;;;36.62;5.82;99415.00;5076190;28;20062;-70
2022/03/24 09:13:17;;;;;;;15.00;11.07;;;;;;;37.29;5.76;99424.63;5074844;28;20585;-68
2022/03/24 09:15:44;;;;;;;20.40;10.05;;;;;;;37.75;5.54;99422.31;5075657;28;20035;-69
2022/03/24 09:18:10;;;;;;;14.05;10.40;;;;;;;37.56;5.58;99426.94;5075694;28;20062;-69
2022/03/24 09:20:34;;;;;;;15.20;9.57;;;;;;;36.96;5.57;99429.00;5074298;28;20036;-72
2022/03/24 09:22:59;;;;;;;14.02;9.75;;;;;;;36.64;5.58;99426.69;5075428;28;20047;-69
2022/03/24 09:25:24;;;;;;;15.88;10.68;;;;;;;36.54;5.57;99426.72;5074464;28;20558;-69
2022/03/24 09:27:49;;;;;;;13.05;10.07;;;;;;;36.58;5.71;99433.34;5074886;28;20525;-71
2022/03/24 09:30:18;;;;;;;9.60;8.55;;;;;;;36.31;5.69;99432.94;5074048;28;20039;-70
2022/03/24 09:32:45;;;;;;;11.98;8.27;;;;;;;36.29;5.62;99422.09;5075328;28;20126;-70
2022/03/24 09:35:10;;;;;;;13.15;9.48;;;;;;;36.59;5.57;99429.47;5075304;28;20036;-70
2022/03/24 09:37:34;;;;;;;18.98;9.82;;;;;;;37.04;5.47;99431.19;5074175;28;20089;-70
2022/03/24 09:40:02;;;;;;;15.57;9.35;;;;;;;37.46;5.13;99432.59;5074994;28;20035;-70
2022/03/24 09:42:29;;;;;;;12.68;8.85;;;;;;;36.83;5.59;99421.31;5074049;28;20043;-69
2022/03/24 09:44:57;;;;;;;15.93;8.82;;;;;;;36.70;5.65;99420.00;5073732;28;20093;-70
2022/03/24 09:47:25;;;;;;;11.45;8.63;;;;;;;37.01;5.50;99422.59;5073724;28;20566;-70
2022/03/24 09:49:50;;;;;;;11.20;8.25;;;;;;;36.95;5.26;99410.69;5079079;28;20509;-69
2022/03/24 09:52:15;;;;;;;16.17;9.13;;;;;;;36.29;5.23;99413.78;5078970;28;20456;-69
2022/03/24 09:54:45;;;;;;;14.90;9.13;;;;;;;36.03;5.82;99424.09;5078786;28;20031;-70
2022/03/24 09:57:10;;;;;;;12.30;8.98;;;;;;;35.77;5.54;99405.03;5077308;28;20067;-70
2022/03/24 09:59:35;;;;;;;93.90;20.70;;;;;;;35.80;5.65;99416.38;5078707;28;20058;-71
2022/03/24 10:02:03;;;;;;;13.32;8.85;;;;;;;35.84;5.89;99422.19;5077302;28;20043;-70
2022/03/24 10:04:28;;;;;;;10.55;7.53;;;;;;;35.71;5.86;99411.66;5077517;28;20035;-69
2022/03/24 10:07:03;;;;;;;15.38;8.07;;;;;;;35.60;6.00;99410.81;5096609;27;20058;-69
2022/03/24 10:09:58;;;;;;;7.82;6.97;;;;;;;35.59;6.30;99414.72;5098877;27;20122;-70
2022/03/24 10:12:28;;;;;;;8.48;6.68;;;;;;;35.15;5.99;99415.22;5079008;27;20101;-69
2022/03/24 10:15:03;;;;;;;9.68;7.80;;;;;;;34.76;5.92;99417.69;5080645;27;20039;-70
2022/03/24 10:17:29;;;;;;;12.40;7.80;;;;;;;34.42;6.21;99410.88;5098660;27;20035;-70
2022/03/24 10:19:57;;;;;;;15.35;8.13;;;;;;;34.40;6.20;99415.84;5080207;27;20043;-69
2022/03/24 10:22:21;;;;;;;11.57;8.40;;;;;;;33.59;6.38;99395.97;5080184;27;20039;-69
2022/03/24 10:24:46;;;;;;;12.70;9.05;;;;;;;31.39;7.57;99399.88;5087476;27;20030;-73
2022/03/24 10:27:20;;;;;;;15.25;8.45;;;;;;;29.21;8.33;99408.97;5090676;27;20043;-71
2022/03/24 10:29:47;;;;;;;10.00;7.63;;;;;;;26.59;9.49;99403.28;5061889;27;20031;-72
2022/03/24 10:32:15;;;;;;;12.23;8.25;;;;;;;24.67;10.41;99399.06;5080378;27;20097;-70
2022/03/24 10:34:42;;;;;;;10.02;7.68;;;;;;;22.88;10.83;99409.84;5102979;27;20069;-71
2022/03/24 10:37:08;;;;;;;13.30;6.85;;;;;;;21.23;12.23;99412.16;5080307;27;20047;-71
2022/03/24 10:39:37;;;;;;;12.70;7.50;;;;;;;20.24;12.64;99397.59;5080759;27;20046;-71
2022/03/24 10:42:17;;;;;;;16.27;7.18;;;;;;;19.68;13.03;99403.22;5100588;27;20388;-71
2022/03/24 10:45:14;;;;;;;9.02;6.60;;;;;;;19.09;13.78;99408.88;5100064;27;20031;-70
2022/03/24 10:47:58;;;;;;;13.68;7.00;;;;;;;18.41;14.19;99411.81;5100631;27;20484;-74
2022/03/24 10:50:38;;;;;;;12.60;6.72;;;;;;;17.99;13.93;99414.53;5083371;27;20039;-75
2022/03/24 10:53:06;;;;;;;13.35;7.40;;;;;;;17.40;14.93;99413.53;5100756;27;20074;-72
2022/03/24 10:55:45;;;;;;;8.68;6.25;;;;;;;17.18;15.04;99400.56;5083485;27;20046;-72
2022/03/24 10:58:18;;;;;;;11.23;6.80;;;;;;;16.84;15.49;99399.63;5075318;27;20078;-72
2022/03/24 11:00:42;;;;;;;17.35;6.63;;;;;;;16.48;15.66;99398.78;5102744;27;20084;-72
2022/03/24 11:03:07;;;;;;;14.68;6.57;;;;;;;16.17;15.51;99391.03;5104668;27;20039;-72
2022/03/24 11:05:32;;;;;;;16.27;7.20;;;;;;;15.92;16.26;99397.13;5056280;27;20110;-72
2022/03/24 11:08:05;;;;;;;16.23;7.18;;;;;;;15.77;16.69;99396.78;5050686;27;20035;-74
2022/03/24 11:10:33;;;;;;;11.00;6.82;;;;;;;15.58;16.73;99394.16;5091980;27;20046;-71
2022/03/24 11:13:01;;;;;;;10.48;6.50;;;;;;;15.46;17.05;99395.34;5083132;27;20569;-71
2022/03/24 11:15:28;;;;;;;10.93;6.85;;;;;;;15.35;17.15;99396.31;5101981;27;20231;-71
2022/03/24 11:17:53;;;;;;;11.80;7.38;;;;;;;15.20;16.93;99398.66;5066100;27;20046;-72
2022/03/24 11:20:19;;;;;;;15.18;7.20;;;;;;;15.10;17.18;99395.13;5064862;27;20035;-70
2022/03/24 11:23:01;;;;;;;16.08;8.02;;;;;;;15.04;16.80;99406.44;5080255;27;20500;-70
2022/03/24 11:25:28;;;;;;;10.95;7.18;;;;;;;14.79;18.10;99399.81;5076282;27;20043;-74